This is the latest recevied weather packets stored in our database for station/object SQ4IXR-4. If no packets are shown the sender has not sent any weather packets the latest 10 day(s).
| Time | Temp. | Humidity | Pressure | Rain* | Wind** | Luminosity | Snow |
|---|---|---|---|---|---|---|---|
| 1777223342 | 5.56° C | 52% | 1022.8 hPa | - | - | - | - |
| 1777221697 | 5.56° C | 54% | 1022.7 hPa | - | - | - | - |
| 1777220874 | 5° C | 57% | 1022.7 hPa | - | - | - | - |
| 1777220052 | 5° C | 57% | 1022.5 hPa | - | - | - | - |
| 1777219228 | 5.56° C | 60% | 1022.4 hPa | - | - | - | - |
| 1777218408 | 6.11° C | 62% | 1022.4 hPa | - | - | - | - |
| 1777217583 | 6.67° C | 53% | 1021.8 hPa | - | - | - | - |
| 1777216759 | 6.11° C | 62% | 1021.6 hPa | - | - | - | - |
| 1777215937 | 6.11° C | 64% | 1021.7 hPa | - | - | - | - |
| 1777215117 | 7.78° C | 49% | 1021.1 hPa | - | - | - | - |
| 1777214293 | 7.22° C | 51% | 1020.9 hPa | - | - | - | - |
| 1777213472 | 6.11° C | 58% | 1020.6 hPa | - | - | - | - |
| 1777212649 | 7.78° C | 63% | 1020.5 hPa | - | - | - | - |
| 1777211830 | 8.89° C | 50% | 1020.4 hPa | - | - | - | - |
| 1777211002 | 7.22° C | 54% | 1020.4 hPa | - | - | - | - |
| 1777210178 | 6.67° C | 51% | 1020.3 hPa | - | - | - | - |
| 1777209353 | 5.56° C | 52% | 1020.5 hPa | - | - | - | - |
| 1777208535 | 5.56° C | 59% | 1020.3 hPa | - | - | - | - |
| 1777207723 | 12.78° C | 29% | 1018.9 hPa | - | - | - | - |
| 1777206909 | 19.44° C | 21% | 1018.4 hPa | - | - | - | - |
| 1777206089 | 26.11° C | 18% | 1017.7 hPa | - | - | - | - |
| 1777205235 | 8.33° C | 52% | 1019.2 hPa | - | - | - | - |
| 1777204424 | 12.78° C | 37% | 1019.1 hPa | - | - | - | - |
| 1777203590 | 8.33° C | 40% | 1018.6 hPa | - | - | - | - |
| 1777202774 | 10° C | 39% | 1018.1 hPa | - | - | - | - |
* Rain since midnight (hover to see other rain measurements)
** Current wind speed in m/s (hover to see current wind gust speed)